< Typhoon 201919 2019 Season Typhoon 201921 >
Typhoon 201920 (NEOGURI)
General InformationTrack Information on Google MapsDetailed Wind InformationForecast History on Google MapsAccess Analytics MapList of All Images || NewsDisaster Info.WeblogTrackbackTyphoon FrontTwiphoonTyphoon Now!Typhoon ImaginationJMA Disaster Info. XMLResourceGoogle EarthGE AnimationAtom FeedGeoJSON
Detalied Best Track (Time Zone = UTC)
Year Month Day Hour Lat. Long. Pressure (hPa) Wind (kt) Class Image Chart
2019 10 15 00 15.8 136.4 1010 0 2 Image Chart
2019 10 15 06 16.0 135.5 1008 0 2 Image Chart
2019 10 15 12 16.4 134.6 1008 0 2 Image Chart
2019 10 15 18 16.8 133.8 1004 0 2 Image Chart
2019 10 16 00 17.3 132.9 1006 0 2 Image Chart
2019 10 16 06 17.8 132.0 1004 0 2 Image Chart
2019 10 16 12 18.1 131.2 1006 0 2 Image Chart
2019 10 16 18 18.3 130.6 1008 0 2 Image Chart
2019 10 17 00 18.6 130.3 1002 35 3 Image Chart
2019 10 17 06 19.0 130.2 1002 35 3 Image Chart
2019 10 17 12 19.3 130.2 1002 35 3 Image Chart
2019 10 17 18 19.6 130.1 1000 40 3 Image Chart
2019 10 18 00 19.8 130.0 998 45 3 Image Chart
2019 10 18 06 20.0 129.9 998 45 3 Image Chart
2019 10 18 12 20.3 129.4 998 45 3 Image Chart
2019 10 18 18 20.6 128.7 992 50 4 Image Chart
2019 10 19 00 21.0 128.0 990 55 4 Image Chart
2019 10 19 06 21.6 127.3 985 60 4 Image Chart
2019 10 19 12 21.8 127.3 975 70 5 Image Chart
2019 10 19 18 22.6 127.5 970 75 5 Image Chart
2019 10 20 00 23.4 127.9 970 75 5 Image Chart
2019 10 20 06 24.4 128.9 975 70 5 Image Chart
2019 10 20 12 25.4 129.9 980 65 5 Image Chart
2019 10 20 15 26.3 130.6 980 65 5 Image Chart
2019 10 20 18 27.1 131.3 985 60 4 Image Chart
2019 10 21 00 28.8 133.0 985 60 4 Image Chart
2019 10 21 06 30.2 134.3 990 55 4 Image Chart
2019 10 21 12 31.3 135.3 998 0 6 Image Chart
2019 10 21 18 32.1 136.7 998 0 6 Image Chart
2019 10 22 00 32.1 137.9 1004 0 6 Image Chart
Japan Meteorological Agency Best Track Data | Correction Date : 2019-12-18
< Typhoon 201919 2019 Season Typhoon 201921 >

Help